Tikaboo Peak, Nevada Weather observations

Data are for 10 minute period ending at time listed.
 Day   Time   Solar   Ave.   Ave.  Ave.  Vector  Max.   Baro.   Total    
  of    of     Rad.   Air    Rel.  Wind   Wind   Wind  Press.  Precip.   
Year   Day            Temp.  Hum.  Speed  Dir.   Gust                    
2015   (PST)  Kw/m2    F      %     mph   deg.    mph    mb.     in.     
-------------------------------------------------------------------------
 148    5:00   0.10   56.5    31    8.1   294    11.0   763.7    0.00 
 148    5:10   0.10   58.5    29    6.3   294     8.6   763.9    0.00 
 148    5:20   0.06   57.2    30    7.4   292    10.7   764.0    0.00 
 148    5:30   0.11   57.0    30    7.4   299    12.0   764.1    0.00 
 148    5:40   0.24   58.3    30    7.0   299    11.8   764.2    0.00 
 148    5:50   0.31   62.5    27    5.2   300    10.9   764.2    0.00 
 148    6:00   0.37   64.7    24    6.3   291    10.2   764.3    0.00 
 148    6:10   0.23   61.7    26    7.5   294    10.5   764.4    0.00 
 148    6:20   0.31   60.2    28    6.1   294     9.6   764.5    0.00 
 148    6:30   0.43   63.8    26    4.5   300     7.8   764.6    0.00 
 148    6:40   0.48   65.6    24    3.4   300     7.4   764.8    0.00 
 148    6:50   0.50   65.4    24    3.3   301    15.3   764.8    0.00 
 148    7:00   0.53   66.1    24    2.9   299     5.5   764.8    0.00 
 148    7:10   0.56   65.4    24    3.0   270     7.2   764.9    0.00 
 148    7:20   0.60   65.5    25    4.4   298     8.3   765.0    0.00 
 148    7:30   0.63   65.2    25    2.6   303     8.0   765.1    0.00 
 148    7:40   0.66   66.4    24    4.3   301     8.3   765.2    0.00 
 148    7:50   0.69   66.4    24    4.4   290    10.6   765.2    0.00 
 148    8:00   0.72   65.6    25    2.7   311     7.7   765.2    0.00 
 148    8:10   0.76   66.0    25    3.4   313     6.4   765.2    0.00 
 148    8:20   0.78   66.5    25    2.4   300     5.8   765.2    0.00 
 148    8:30   0.81   66.3    25    2.2   320     6.4   765.3    0.00 
 148    8:40   0.84   64.6    27    2.1   307     5.9   765.3    0.00 
 148    8:50   0.86   65.5    26    3.8   281     9.1   765.3    0.00 
 148    9:00   0.89   65.8    26    3.4   279     8.8   765.4    0.00 
 148    9:10   0.91   66.0    25    2.8   318     9.6   765.4    0.00 
 148    9:20   0.93   66.5    25    2.3   330     8.4   765.5    0.00 
 148    9:30   0.94   67.8    24    2.2   324    10.6   765.6    0.00 
 148    9:40   0.97   68.6    24    4.3   301     8.5   765.6    0.00 
 148    9:50   1.00   69.1    23    2.9   298     7.7   765.7    0.00 
 148   10:00   1.04   69.6    22    3.9   303     9.9   765.7    0.00 
 148   10:10   1.02   69.7    22    2.1   309     5.3   765.6    0.00 
 148   10:20   1.01   69.9    22    2.6   272     7.7   765.7    0.00 
 148   10:30   1.04   69.1    22    1.4   318     6.0   765.6    0.00 
 148   10:40   1.04   70.1    22    2.3   296     7.2   765.6    0.00 
 148   10:50   1.05   69.9    22    4.8   274    10.4   765.5    0.00 
 148   11:00   1.06   68.2    23    4.9   261    13.1   765.5    0.00 
 148   11:10   1.05   69.5    22    4.5   223    11.2   765.5    0.00 
 148   11:20   1.07   66.6    24    3.1   185     8.8   765.4    0.00 
 148   11:30   1.07   69.4    23    5.2   244    12.1   765.4    0.00 
 148   11:40   1.12   69.4    22    6.0   232    15.1   765.3    0.00 
 148   11:50   1.14   72.2    20    3.6   249    11.0   765.3    0.00 
 148   12:00   0.71   71.6    21    5.9   246    16.7   765.2    0.00 
 148   12:10   1.18   69.9    22    6.0   233    14.7   765.0    0.00 
 148   12:20   0.77   71.6    21    4.8   278    12.0   764.8    0.00 
 148   12:30   0.37   68.4    23    8.0   254    15.9   764.9    0.00 
 148   12:40   0.30   66.8    24    7.5   220    15.8   764.9    0.00 
 148   12:50   0.54   66.4    24    7.2   248    17.4   764.9    0.00 
 148   13:00   0.83   67.9    23   11.4   228    18.6   764.9    0.00 
 148   13:10   1.15   69.6    21    8.3   219    16.4   764.8    0.00 
 148   13:20   1.16   71.3    20    7.9   245    16.4   764.7    0.00 
 148   13:30   0.88   71.4    19    5.2   257    17.5   764.5    0.00 
 148   13:40   0.96   71.0    19    9.5   259    18.3   764.4    0.00 
 148   13:50   0.78   71.3    19   12.0   231    21.8   764.4    0.00 
 148   14:00   0.72   70.3    20    8.9   255    17.1   764.6    0.00 
 148   14:10   0.35   70.1    20    7.5   236    16.3   764.6    0.00 
 148   14:20   0.27   68.8    21    8.1   226    17.6   764.5    0.00 
 148   14:30   0.22   67.4    21    7.0   247    16.4   764.5    0.00 
 148   14:40   0.21   66.3    22    8.5   236    17.7   764.5    0.00 
 148   14:50   0.55   67.3    21    7.1   257    15.1   764.4    0.00 
 148   15:00   0.45   70.6    19    7.0   258    11.2   764.4    0.00 
 148   15:10   0.49   69.2    19    8.7   250    17.0   764.3    0.00 
 148   15:20   0.32   69.1    19    8.9   255    15.8   764.3    0.00 
 148   15:30   0.20   67.4    20    7.7   251    16.6   764.2    0.00 
 148   15:40   0.18   66.8    21    8.2   254    16.7   764.2    0.00 
 148   15:50   0.19   66.7    21    7.6   267    17.7   764.1    0.00 
 148   16:00   0.17   66.9    21    7.8   235    13.7   764.2    0.00 
 148   16:10   0.11   66.3    21    8.6   227    16.3   764.1    0.00 
 148   16:20   0.14   65.9    21    6.9   277    11.8   764.1    0.00 
 148   16:30   0.22   66.5    20    7.2   265    12.6   764.1    0.00 
 148   16:40   0.19   66.7    20    8.7   242    14.8   764.0    0.00 
 148   16:50   0.31   66.9    20    6.8   272    12.9   763.9    0.00 
 148   17:00   0.30   68.2    19    5.6   276    11.5   763.9    0.00 
 148   17:10   0.15   67.1    20    6.0   272    13.0   763.9    0.00 
 148   17:20   0.13   66.3    20    1.7   283     8.3   764.0    0.00 
 148   17:30   0.08   66.3    20    3.8   301     8.8   764.0    0.00 
 148   17:40   0.05   65.8    20    1.4   322     9.6   764.0    0.00 
 148   17:50   0.06   65.3    21    3.3   301    12.7   764.0    0.00 
 148   18:00   0.05   65.2    20    6.8   292    16.6   764.0    0.00 
 148   18:10   0.04   64.9    20    4.8   304    14.2   764.0    0.00 
 148   18:20   0.03   64.7    20    5.8   296     9.9   764.1    0.00 
 148   18:30   0.02   64.5    20    5.4   265    11.0   764.1    0.00 
 148   18:40   0.01   64.1    20    5.1   264     9.9   764.2    0.00 
 148   18:50   0.00   64.0    20    6.8   288    12.3   764.3    0.00 
 148   19:00   0.00   63.8    20    5.4   286    11.2   764.4    0.00 
 148   19:10   0.00   63.6    20    3.8   293    11.5   764.5    0.00 
 148   19:20   0.00   63.3    20    2.6   246     6.4   764.5    0.00 
 148   19:30   0.00   62.9    21    5.7   241     9.6   764.6    0.00 
 148   19:40   0.00   62.8    21    6.4   271    12.1   764.7    0.00 
 148   19:50   0.00   62.7    21    6.8   272    12.9   764.8    0.00 
 148   20:00   0.00   62.4    22    5.2   254     9.8   764.8    0.00 
 148   20:10   0.00   62.2    22    6.1   261    12.9   764.9    0.00 
 148   20:20   0.00   62.1    23    9.0   248    15.7   764.9    0.00 
 148   20:30   0.00   62.0    23    9.0   246    14.4   765.0    0.00 
 148   20:40   0.00   62.0    23    7.2   231    12.4   765.0    0.00 
 148   20:50   0.00   62.0    23    9.0   213    13.4   765.0    0.00 
 148   21:00   0.00   61.9    23    7.0   269    13.4   764.9    0.00 
 148   21:10   0.00   61.8    23    6.7   271    11.6   764.9    0.00 
 148   21:20   0.00   61.6    23    6.3   256    10.4   765.0    0.00 
 148   21:30   0.00   61.2    24    6.8   263    11.8   765.1    0.00 
 148   21:40   0.00   60.7    24    9.8   254    14.1   765.1    0.00 
 148   21:50   0.00   60.5    24    5.3   271    11.6   765.1    0.00 
 148   22:00   0.00   60.5    24    6.0   200    10.0   765.0    0.00 
 148   22:10   0.00   60.2    25    3.7   196     8.6   765.0    0.00 
 148   22:20   0.00   60.1    24    7.0   219     9.9   765.0    0.00 
 148   22:30   0.00   60.2    24    7.4   240    11.9   765.0    0.00 
 148   22:40   0.00   59.9    24    9.4   258    14.2   765.0    0.00 
 148   22:50   0.00   59.7    25   11.1   254    15.8   765.0    0.00 
 148   23:00   0.00   59.7    25   10.2   253    14.0   764.9    0.00 
 148   23:10   0.00   59.7    25   13.5   274    17.8   764.9    0.00 
 148   23:20   0.00   59.6    25   10.9   293    15.9   764.9    0.00 
 148   23:30   0.00   59.4    25   10.8   282    13.0   765.0    0.00 
 148   23:40   0.00   59.2    25   10.4   281    13.0   764.9    0.00 
 148   23:50   0.00   59.1    26   10.9   282    13.4   764.9    0.00 
 149    0:00   0.00   58.9    26   10.5   270    12.8   764.8    0.00 
 149    0:10   0.00   58.5    26    9.5   263    11.8   764.8    0.00 
 149    0:20   0.00   58.3    26    8.9   245    14.0   764.8    0.00 
 149    0:30   0.00   58.6    26    7.3   273    13.3   764.9    0.00 
 149    0:40   0.00   58.3    26    8.5   270    11.2   764.9    0.00 
 149    0:50   0.00   58.1    26    9.9   262    12.4   764.8    0.00 
 149    1:00   0.00   58.0    26   10.5   266    14.6   764.7    0.00 
 149    1:10   0.00   58.1    25   12.0   266    17.0   764.8    0.00 
 149    1:20   0.00   58.0    25   11.7   266    15.1   764.7    0.00 
 149    1:30   0.00   58.0    25   11.3   263    13.7   764.7    0.00 
 149    1:40   0.00   57.7    25   10.4   254    12.7   764.7    0.00 
 149    1:50   0.00   57.6    25    9.0   253    12.8   764.7    0.00 
 149    2:00   0.00   57.8    25    8.9   243    12.9   764.6    0.00 
 149    2:10   0.00   57.8    26    6.5   222     8.3   764.6    0.00 
 149    2:20   0.00   57.8    26    6.0   238     7.1   764.7    0.00 
 149    2:30   0.00   57.6    25    6.5   244     9.7   764.7    0.00 
 149    2:40   0.00   57.8    26    5.4   207     6.5   764.7    0.00 
 149    2:50   0.00   58.0    26    4.7   184     6.2   764.8    0.00 
 149    3:00   0.00   57.8    25    4.6   207     6.9   764.7    0.00 
 149    3:10   0.00   57.8    26    6.8   189     8.9   764.7    0.00 
 149    3:20   0.00   57.7    26    6.4   192     7.7   764.7    0.00 
 149    3:30   0.00   57.5    26    6.4   205     7.8   764.7    0.00 
 149    3:40   0.00   57.1    26    6.3   202     7.5   764.8    0.00 
 149    3:50   0.00   57.2    27    6.4   197     7.7   764.8    0.00 
 149    4:00   0.00   57.1    27    6.3   192     7.9   764.8    0.00 
 149    4:10   0.00   56.7    29    6.5   173     7.7   764.8    0.00 
 149    4:20   0.00   56.0    34    8.6   124    11.8   764.9    0.00 
 149    4:30   0.01   55.4    37    8.7   119    11.3   765.0    0.00 
 149    4:40   0.03   55.6    36    7.6   125    10.4   765.0    0.00 
 149    4:50   0.05   56.1    34    6.9   131     9.4   765.1    0.00 

Return to Tikaboo Peak graphs page.


Western Regional Climate Center,wrcc@dri.edu